sensor_id;sensor_type;location;lat;lon;timestamp;pressure;altitude;pressure_sealevel;temperature;humidity
31595;BME280;18200;48.726;8.892;2023-05-03T00:02:55;97538.88;;;23.17;34.49
31595;BME280;18200;48.726;8.892;2023-05-03T00:06:56;97545.78;;;22.25;35.71
31595;BME280;18200;48.726;8.892;2023-05-03T00:11:00;97546.09;;;22.57;35.96
31595;BME280;18200;48.726;8.892;2023-05-03T00:15:00;97548.88;;;22.80;35.45
31595;BME280;18200;48.726;8.892;2023-05-03T00:19:01;97545.78;;;22.78;35.25
31595;BME280;18200;48.726;8.892;2023-05-03T00:23:01;97549.59;;;22.84;35.07
31595;BME280;18200;48.726;8.892;2023-05-03T00:27:03;97550.19;;;22.15;35.59
31595;BME280;18200;48.726;8.892;2023-05-03T00:31:07;97549.44;;;21.81;36.03
31595;BME280;18200;48.726;8.892;2023-05-03T00:35:08;97541.59;;;22.44;35.88
31595;BME280;18200;48.726;8.892;2023-05-03T00:39:09;97535.69;;;22.45;35.42
31595;BME280;18200;48.726;8.892;2023-05-03T00:43:11;97534.00;;;22.28;35.61
31595;BME280;18200;48.726;8.892;2023-05-03T00:47:12;97530.16;;;22.22;36.17
31595;BME280;18200;48.726;8.892;2023-05-03T00:51:13;97523.09;;;22.24;36.36
31595;BME280;18200;48.726;8.892;2023-05-03T00:55:14;97521.53;;;22.77;34.89
31595;BME280;18200;48.726;8.892;2023-05-03T00:59:14;97522.56;;;22.63;35.30
31595;BME280;18200;48.726;8.892;2023-05-03T01:03:16;97519.75;;;22.67;35.08
31595;BME280;18200;48.726;8.892;2023-05-03T01:07:32;97522.19;;;22.58;35.24
31595;BME280;18200;48.726;8.892;2023-05-03T01:15:59;97511.34;;;23.00;34.57
31595;BME280;18200;48.726;8.892;2023-05-03T01:20:05;97519.72;;;21.87;35.34
31595;BME280;18200;48.726;8.892;2023-05-03T01:24:17;97517.31;;;22.19;35.64
31595;BME280;18200;48.726;8.892;2023-05-03T01:28:21;97520.97;;;21.04;36.86
31595;BME280;18200;48.726;8.892;2023-05-03T01:32:27;97520.56;;;21.02;37.23
31595;BME280;18200;48.726;8.892;2023-05-03T01:36:30;97514.28;;;21.12;36.41
31595;BME280;18200;48.726;8.892;2023-05-03T01:40:35;97510.41;;;21.10;36.64
31595;BME280;18200;48.726;8.892;2023-05-03T01:44:38;97506.97;;;20.51;38.12
31595;BME280;18200;48.726;8.892;2023-05-03T01:48:39;97511.28;;;20.96;36.97
31595;BME280;18200;48.726;8.892;2023-05-03T01:52:39;97505.25;;;21.15;36.17
31595;BME280;18200;48.726;8.892;2023-05-03T01:56:40;97499.47;;;21.06;37.08
31595;BME280;18200;48.726;8.892;2023-05-03T02:00:40;97498.50;;;20.86;37.44
31595;BME280;18200;48.726;8.892;2023-05-03T02:04:41;97508.81;;;21.12;36.11
31595;BME280;18200;48.726;8.892;2023-05-03T02:08:41;97508.72;;;20.75;37.34
31595;BME280;18200;48.726;8.892;2023-05-03T02:12:44;97502.94;;;21.14;36.85
31595;BME280;18200;48.726;8.892;2023-05-03T02:16:44;97497.66;;;21.33;36.26
31595;BME280;18200;48.726;8.892;2023-05-03T02:20:47;97501.31;;;21.53;35.91
31595;BME280;18200;48.726;8.892;2023-05-03T02:24:47;97499.84;;;21.83;35.61
31595;BME280;18200;48.726;8.892;2023-05-03T02:28:48;97491.69;;;21.76;35.40
31595;BME280;18200;48.726;8.892;2023-05-03T02:32:48;97497.09;;;21.83;35.24
31595;BME280;18200;48.726;8.892;2023-05-03T02:36:51;97484.94;;;21.84;34.54
31595;BME280;18200;48.726;8.892;2023-05-03T02:40:52;97487.69;;;21.84;34.57
31595;BME280;18200;48.726;8.892;2023-05-03T02:44:52;97483.41;;;21.83;34.41
31595;BME280;18200;48.726;8.892;2023-05-03T02:48:53;97478.50;;;21.67;34.69
31595;BME280;18200;48.726;8.892;2023-05-03T02:52:53;97495.31;;;21.32;35.45
31595;BME280;18200;48.726;8.892;2023-05-03T02:56:54;97492.09;;;21.40;34.99
31595;BME280;18200;48.726;8.892;2023-05-03T03:00:54;97489.66;;;21.49;34.60
31595;BME280;18200;48.726;8.892;2023-05-03T03:04:55;97491.09;;;21.57;34.19
31595;BME280;18200;48.726;8.892;2023-05-03T03:08:56;97487.59;;;21.23;34.66
31595;BME280;18200;48.726;8.892;2023-05-03T03:12:57;97497.25;;;20.94;34.94
31595;BME280;18200;48.726;8.892;2023-05-03T03:17:08;97499.66;;;20.85;35.34
31595;BME280;18200;48.726;8.892;2023-05-03T03:21:08;97492.66;;;20.84;35.43
31595;BME280;18200;48.726;8.892;2023-05-03T03:25:10;97490.59;;;20.95;35.05
31595;BME280;18200;48.726;8.892;2023-05-03T03:29:10;97488.19;;;20.60;35.17
31595;BME280;18200;48.726;8.892;2023-05-03T03:33:14;97492.97;;;20.45;35.71
31595;BME280;18200;48.726;8.892;2023-05-03T03:37:16;97503.13;;;20.45;35.62
31595;BME280;18200;48.726;8.892;2023-05-03T03:41:18;97493.44;;;20.37;35.45
31595;BME280;18200;48.726;8.892;2023-05-03T03:45:19;97500.13;;;20.29;35.45
31595;BME280;18200;48.726;8.892;2023-05-03T03:49:20;97506.47;;;20.04;35.56
31595;BME280;18200;48.726;8.892;2023-05-03T03:53:20;97511.03;;;20.29;35.33
31595;BME280;18200;48.726;8.892;2023-05-03T03:57:21;97512.50;;;20.44;36.28
31595;BME280;18200;48.726;8.892;2023-05-03T04:01:25;97519.81;;;19.88;36.84
31595;BME280;18200;48.726;8.892;2023-05-03T04:05:26;97523.41;;;19.64;37.74
31595;BME280;18200;48.726;8.892;2023-05-03T04:09:28;97525.38;;;19.60;37.30
31595;BME280;18200;48.726;8.892;2023-05-03T04:13:29;97532.00;;;20.39;37.14
31595;BME280;18200;48.726;8.892;2023-05-03T04:17:30;97537.53;;;20.28;37.42
31595;BME280;18200;48.726;8.892;2023-05-03T04:21:33;97534.38;;;19.50;38.43
31595;BME280;18200;48.726;8.892;2023-05-03T04:25:33;97530.88;;;20.33;37.59
31595;BME280;18200;48.726;8.892;2023-05-03T04:29:42;97538.16;;;20.57;37.30
31595;BME280;18200;48.726;8.892;2023-05-03T04:33:42;97533.47;;;20.54;37.00
31595;BME280;18200;48.726;8.892;2023-05-03T04:37:49;97529.22;;;19.73;38.27
31595;BME280;18200;48.726;8.892;2023-05-03T04:41:54;97533.63;;;19.28;39.64
31595;BME280;18200;48.726;8.892;2023-05-03T04:45:54;97527.78;;;19.41;39.49
31595;BME280;18200;48.726;8.892;2023-05-03T04:49:58;97528.16;;;20.33;38.59
31595;BME280;18200;48.726;8.892;2023-05-03T04:53:59;97537.09;;;20.88;37.02
31595;BME280;18200;48.726;8.892;2023-05-03T04:58:01;97536.06;;;21.19;36.88
31595;BME280;18200;48.726;8.892;2023-05-03T05:02:01;97538.34;;;21.24;36.69
31595;BME280;18200;48.726;8.892;2023-05-03T05:06:02;97544.03;;;21.03;37.42
31595;BME280;18200;48.726;8.892;2023-05-03T05:10:05;97542.00;;;21.11;37.09
31595;BME280;18200;48.726;8.892;2023-05-03T05:14:05;97549.13;;;21.38;37.51
31595;BME280;18200;48.726;8.892;2023-05-03T05:18:06;97543.53;;;21.52;36.93
31595;BME280;18200;48.726;8.892;2023-05-03T05:22:08;97551.97;;;21.31;36.92
31595;BME280;18200;48.726;8.892;2023-05-03T05:26:31;97537.09;;;21.70;37.17
31595;BME280;18200;48.726;8.892;2023-05-03T05:30:31;97549.44;;;21.10;38.21
31595;BME280;18200;48.726;8.892;2023-05-03T05:34:33;97552.06;;;20.73;38.66
31595;BME280;18200;48.726;8.892;2023-05-03T05:38:34;97557.63;;;20.55;39.89
31595;BME280;18200;48.726;8.892;2023-05-03T05:42:34;97544.09;;;21.71;38.15
31595;BME280;18200;48.726;8.892;2023-05-03T05:46:36;97532.91;;;21.95;37.24
31595;BME280;18200;48.726;8.892;2023-05-03T05:50:37;97534.47;;;21.93;37.39
31595;BME280;18200;48.726;8.892;2023-05-03T05:54:44;97532.16;;;22.48;36.67
31595;BME280;18200;48.726;8.892;2023-05-03T05:58:45;97533.63;;;23.02;35.77
31595;BME280;18200;48.726;8.892;2023-05-03T06:02:45;97534.69;;;22.85;35.98
31595;BME280;18200;48.726;8.892;2023-05-03T06:06:50;97536.97;;;22.90;35.90
31595;BME280;18200;48.726;8.892;2023-05-03T06:10:51;97540.28;;;22.52;36.66
31595;BME280;18200;48.726;8.892;2023-05-03T06:14:55;97541.75;;;23.09;35.44
31595;BME280;18200;48.726;8.892;2023-05-03T06:18:55;97536.25;;;22.63;36.46
31595;BME280;18200;48.726;8.892;2023-05-03T06:22:56;97537.44;;;23.08;35.94
31595;BME280;18200;48.726;8.892;2023-05-03T06:26:56;97535.97;;;22.54;37.29
31595;BME280;18200;48.726;8.892;2023-05-03T06:30:58;97537.66;;;23.41;35.60
31595;BME280;18200;48.726;8.892;2023-05-03T06:35:00;97548.56;;;22.48;37.83
31595;BME280;18200;48.726;8.892;2023-05-03T06:39:02;97554.72;;;22.82;36.87
31595;BME280;18200;48.726;8.892;2023-05-03T06:43:03;97555.59;;;21.92;39.31
31595;BME280;18200;48.726;8.892;2023-05-03T06:47:10;97553.63;;;21.55;39.18
31595;BME280;18200;48.726;8.892;2023-05-03T06:51:11;97546.03;;;23.53;35.92
31595;BME280;18200;48.726;8.892;2023-05-03T06:55:11;97540.00;;;22.73;37.80
31595;BME280;18200;48.726;8.892;2023-05-03T06:59:11;97544.50;;;22.60;37.41
31595;BME280;18200;48.726;8.892;2023-05-03T07:03:12;97531.38;;;22.97;36.78
31595;BME280;18200;48.726;8.892;2023-05-03T07:07:12;97541.97;;;23.81;35.21
31595;BME280;18200;48.726;8.892;2023-05-03T07:11:12;97529.34;;;23.25;36.86
31595;BME280;18200;48.726;8.892;2023-05-03T07:15:13;97530.25;;;23.80;36.35
31595;BME280;18200;48.726;8.892;2023-05-03T07:19:14;97528.38;;;23.35;36.85
31595;BME280;18200;48.726;8.892;2023-05-03T07:23:15;97526.38;;;22.69;37.36
31595;BME280;18200;48.726;8.892;2023-05-03T07:27:15;97525.38;;;23.26;37.58
31595;BME280;18200;48.726;8.892;2023-05-03T07:31:15;97522.94;;;22.35;38.38
31595;BME280;18200;48.726;8.892;2023-05-03T07:35:16;97519.44;;;23.07;37.46
31595;BME280;18200;48.726;8.892;2023-05-03T07:39:17;97510.09;;;24.42;34.23
31595;BME280;18200;48.726;8.892;2023-05-03T07:43:18;97514.94;;;24.87;33.65
31595;BME280;18200;48.726;8.892;2023-05-03T07:47:20;97511.81;;;24.52;35.15
31595;BME280;18200;48.726;8.892;2023-05-03T07:51:21;97516.44;;;24.72;34.18
31595;BME280;18200;48.726;8.892;2023-05-03T07:55:22;97513.09;;;24.32;35.61
31595;BME280;18200;48.726;8.892;2023-05-03T07:59:25;97516.09;;;24.53;34.82
31595;BME280;18200;48.726;8.892;2023-05-03T08:03:26;97513.09;;;25.12;34.49
31595;BME280;18200;48.726;8.892;2023-05-03T08:07:27;97499.53;;;24.57;34.65
31595;BME280;18200;48.726;8.892;2023-05-03T08:11:27;97501.91;;;24.03;35.54
31595;BME280;18200;48.726;8.892;2023-05-03T08:15:28;97508.00;;;25.11;34.24
31595;BME280;18200;48.726;8.892;2023-05-03T08:19:29;97507.16;;;25.14;33.97
31595;BME280;18200;48.726;8.892;2023-05-03T08:23:29;97505.44;;;24.55;35.92
31595;BME280;18200;48.726;8.892;2023-05-03T08:27:30;97508.97;;;24.40;35.52
31595;BME280;18200;48.726;8.892;2023-05-03T08:31:31;97508.91;;;25.08;34.11
31595;BME280;18200;48.726;8.892;2023-05-03T08:35:32;97508.72;;;24.50;35.77
31595;BME280;18200;48.726;8.892;2023-05-03T08:39:32;97509.69;;;24.08;35.59
31595;BME280;18200;48.726;8.892;2023-05-03T08:43:36;97520.03;;;24.36;35.80
31595;BME280;18200;48.726;8.892;2023-05-03T08:47:38;97513.44;;;25.59;34.48
31595;BME280;18200;48.726;8.892;2023-05-03T08:51:41;97513.81;;;26.28;32.90
31595;BME280;18200;48.726;8.892;2023-05-03T08:55:42;97520.34;;;25.51;34.09
31595;BME280;18200;48.726;8.892;2023-05-03T08:59:48;97530.78;;;25.11;35.08
31595;BME280;18200;48.726;8.892;2023-05-03T09:03:50;97521.44;;;24.44;35.64
31595;BME280;18200;48.726;8.892;2023-05-03T09:08:01;97522.59;;;25.24;34.57
31595;BME280;18200;48.726;8.892;2023-05-03T09:12:05;97516.66;;;25.42;34.87
31595;BME280;18200;48.726;8.892;2023-05-03T09:16:06;97508.06;;;26.22;33.20
31595;BME280;18200;48.726;8.892;2023-05-03T09:20:07;97509.94;;;24.65;35.63
31595;BME280;18200;48.726;8.892;2023-05-03T09:24:12;97510.25;;;25.16;35.21
31595;BME280;18200;48.726;8.892;2023-05-03T09:28:15;97507.28;;;25.68;34.55
31595;BME280;18200;48.726;8.892;2023-05-03T09:32:16;97504.47;;;25.43;34.16
31595;BME280;18200;48.726;8.892;2023-05-03T09:36:16;97504.91;;;25.09;34.82
31595;BME280;18200;48.726;8.892;2023-05-03T09:40:16;97496.06;;;26.29;32.92
31595;BME280;18200;48.726;8.892;2023-05-03T09:44:17;97494.53;;;27.46;30.95
31595;BME280;18200;48.726;8.892;2023-05-03T09:48:18;97493.41;;;28.88;29.08
31595;BME280;18200;48.726;8.892;2023-05-03T09:52:22;97494.19;;;27.88;30.72
31595;BME280;18200;48.726;8.892;2023-05-03T09:56:23;97512.63;;;25.87;33.73
31595;BME280;18200;48.726;8.892;2023-05-03T10:00:25;97507.31;;;28.27;30.40
31595;BME280;18200;48.726;8.892;2023-05-03T10:04:27;97501.09;;;27.61;30.28
31595;BME280;18200;48.726;8.892;2023-05-03T10:08:40;97496.72;;;26.83;32.78
31595;BME280;18200;48.726;8.892;2023-05-03T10:12:42;97488.78;;;27.19;31.50
31595;BME280;18200;48.726;8.892;2023-05-03T10:16:47;97492.00;;;28.35;30.89
31595;BME280;18200;48.726;8.892;2023-05-03T10:20:55;97491.81;;;27.99;31.08
31595;BME280;18200;48.726;8.892;2023-05-03T10:29:00;97490.06;;;29.02;28.83
31595;BME280;18200;48.726;8.892;2023-05-03T10:37:10;97480.69;;;29.72;27.57
31595;BME280;18200;48.726;8.892;2023-05-03T10:41:10;97483.47;;;28.51;29.47
31595;BME280;18200;48.726;8.892;2023-05-03T10:45:27;97482.38;;;28.09;30.16
31595;BME280;18200;48.726;8.892;2023-05-03T10:49:29;97477.13;;;28.81;29.10
31595;BME280;18200;48.726;8.892;2023-05-03T10:53:35;97470.69;;;28.93;28.89
31595;BME280;18200;48.726;8.892;2023-05-03T10:57:37;97465.72;;;28.79;29.38
31595;BME280;18200;48.726;8.892;2023-05-03T11:01:38;97469.06;;;30.10;29.02
31595;BME280;18200;48.726;8.892;2023-05-03T11:05:40;97462.28;;;27.65;30.32
31595;BME280;18200;48.726;8.892;2023-05-03T11:09:41;97458.13;;;30.81;26.95
31595;BME280;18200;48.726;8.892;2023-05-03T11:13:42;97450.69;;;28.01;29.02
31595;BME280;18200;48.726;8.892;2023-05-03T11:17:42;97447.56;;;28.60;29.20
31595;BME280;18200;48.726;8.892;2023-05-03T11:21:43;97447.75;;;30.34;27.07
31595;BME280;18200;48.726;8.892;2023-05-03T11:25:44;97441.47;;;29.56;26.20
31595;BME280;18200;48.726;8.892;2023-05-03T11:29:47;97433.81;;;30.43;26.11
31595;BME280;18200;48.726;8.892;2023-05-03T11:33:48;97419.97;;;31.29;24.60
31595;BME280;18200;48.726;8.892;2023-05-03T11:37:48;97428.47;;;30.40;25.79
31595;BME280;18200;48.726;8.892;2023-05-03T11:42:02;97427.59;;;30.57;25.49
31595;BME280;18200;48.726;8.892;2023-05-03T11:46:03;97430.66;;;30.59;26.03
31595;BME280;18200;48.726;8.892;2023-05-03T11:50:04;97437.09;;;30.65;25.71
31595;BME280;18200;48.726;8.892;2023-05-03T11:54:04;97424.63;;;28.02;28.40
31595;BME280;18200;48.726;8.892;2023-05-03T11:58:16;97422.63;;;31.47;23.81
31595;BME280;18200;48.726;8.892;2023-05-03T12:02:17;97417.72;;;31.42;23.90
31595;BME280;18200;48.726;8.892;2023-05-03T12:06:18;97426.25;;;29.15;26.45
31595;BME280;18200;48.726;8.892;2023-05-03T12:10:18;97420.59;;;29.37;27.53
31595;BME280;18200;48.726;8.892;2023-05-03T12:14:19;97431.16;;;28.93;27.67
31595;BME280;18200;48.726;8.892;2023-05-03T12:18:20;97414.78;;;30.60;25.62
31595;BME280;18200;48.726;8.892;2023-05-03T12:22:20;97427.63;;;29.01;26.51
31595;BME280;18200;48.726;8.892;2023-05-03T12:26:21;97421.50;;;29.43;26.25
31595;BME280;18200;48.726;8.892;2023-05-03T12:30:22;97412.56;;;31.64;23.84
31595;BME280;18200;48.726;8.892;2023-05-03T12:34:22;97401.59;;;33.34;22.13
31595;BME280;18200;48.726;8.892;2023-05-03T12:38:23;97400.97;;;30.98;22.66
31595;BME280;18200;48.726;8.892;2023-05-03T12:42:23;97395.69;;;31.82;23.20
31595;BME280;18200;48.726;8.892;2023-05-03T12:46:25;97396.19;;;32.85;22.05
31595;BME280;18200;48.726;8.892;2023-05-03T12:50:25;97395.38;;;32.09;23.30
31595;BME280;18200;48.726;8.892;2023-05-03T12:54:25;97386.78;;;28.20;26.76
31595;BME280;18200;48.726;8.892;2023-05-03T12:58:26;97379.91;;;30.44;24.28
31595;BME280;18200;48.726;8.892;2023-05-03T13:02:26;97382.22;;;32.45;24.00
31595;BME280;18200;48.726;8.892;2023-05-03T13:06:26;97383.84;;;33.57;20.67
31595;BME280;18200;48.726;8.892;2023-05-03T13:10:28;97380.34;;;32.71;21.11
31595;BME280;18200;48.726;8.892;2023-05-03T13:14:28;97388.03;;;30.95;23.97
31595;BME280;18200;48.726;8.892;2023-05-03T13:18:29;97370.00;;;30.20;24.76
31595;BME280;18200;48.726;8.892;2023-05-03T13:22:29;97382.28;;;28.81;25.46
31595;BME280;18200;48.726;8.892;2023-05-03T13:26:31;97357.03;;;32.34;22.25
31595;BME280;18200;48.726;8.892;2023-05-03T13:30:32;97360.84;;;33.63;21.55
31595;BME280;18200;48.726;8.892;2023-05-03T13:34:33;97365.22;;;31.59;22.97
31595;BME280;18200;48.726;8.892;2023-05-03T13:38:34;97341.22;;;31.41;22.97
31595;BME280;18200;48.726;8.892;2023-05-03T13:42:34;97357.19;;;34.19;20.09
31595;BME280;18200;48.726;8.892;2023-05-03T13:46:35;97355.41;;;33.02;20.73
31595;BME280;18200;48.726;8.892;2023-05-03T13:50:36;97355.06;;;33.72;20.35
31595;BME280;18200;48.726;8.892;2023-05-03T13:54:36;97348.75;;;31.26;22.43
31595;BME280;18200;48.726;8.892;2023-05-03T13:58:37;97340.00;;;33.95;20.11
31595;BME280;18200;48.726;8.892;2023-05-03T14:02:38;97338.03;;;32.47;21.40
31595;BME280;18200;48.726;8.892;2023-05-03T14:06:39;97341.09;;;33.40;19.27
31595;BME280;18200;48.726;8.892;2023-05-03T14:10:39;97336.28;;;31.65;21.66
31595;BME280;18200;48.726;8.892;2023-05-03T14:14:40;97331.09;;;32.82;20.68
31595;BME280;18200;48.726;8.892;2023-05-03T14:18:40;97326.50;;;33.25;19.71
31595;BME280;18200;48.726;8.892;2023-05-03T14:22:40;97338.81;;;33.65;20.24
31595;BME280;18200;48.726;8.892;2023-05-03T14:26:41;97318.09;;;32.74;19.83
31595;BME280;18200;48.726;8.892;2023-05-03T14:30:41;97310.16;;;34.49;19.78
31595;BME280;18200;48.726;8.892;2023-05-03T14:34:42;97311.19;;;31.16;21.67
31595;BME280;18200;48.726;8.892;2023-05-03T14:38:42;97307.53;;;32.78;20.64
31595;BME280;18200;48.726;8.892;2023-05-03T14:42:43;97297.97;;;34.46;18.99
31595;BME280;18200;48.726;8.892;2023-05-03T14:46:43;97293.47;;;33.38;19.33
31595;BME280;18200;48.726;8.892;2023-05-03T14:50:48;97289.72;;;32.70;20.35
31595;BME280;18200;48.726;8.892;2023-05-03T14:54:48;97279.72;;;34.45;17.96
31595;BME280;18200;48.726;8.892;2023-05-03T14:58:49;97281.84;;;33.77;18.42
31595;BME280;18200;48.726;8.892;2023-05-03T15:02:52;97286.16;;;33.46;19.29
31595;BME280;18200;48.726;8.892;2023-05-03T15:06:58;97291.69;;;34.51;18.42
31595;BME280;18200;48.726;8.892;2023-05-03T15:11:01;97289.34;;;35.20;17.49
31595;BME280;18200;48.726;8.892;2023-05-03T15:15:02;97294.06;;;32.97;19.61
31595;BME280;18200;48.726;8.892;2023-05-03T15:19:03;97293.16;;;35.83;17.79
31595;BME280;18200;48.726;8.892;2023-05-03T15:23:04;97290.13;;;34.50;17.72
31595;BME280;18200;48.726;8.892;2023-05-03T15:27:04;97298.16;;;33.52;18.85
31595;BME280;18200;48.726;8.892;2023-05-03T15:31:05;97295.53;;;33.43;19.21
31595;BME280;18200;48.726;8.892;2023-05-03T15:35:06;97286.44;;;32.97;19.21
31595;BME280;18200;48.726;8.892;2023-05-03T15:39:06;97284.59;;;34.08;17.95
31595;BME280;18200;48.726;8.892;2023-05-03T15:43:08;97284.00;;;32.19;19.38
31595;BME280;18200;48.726;8.892;2023-05-03T15:47:08;97285.50;;;34.42;17.65
31595;BME280;18200;48.726;8.892;2023-05-03T15:51:09;97278.94;;;34.39;17.48
31595;BME280;18200;48.726;8.892;2023-05-03T15:55:09;97282.94;;;35.91;16.55
31595;BME280;18200;48.726;8.892;2023-05-03T15:59:10;97281.97;;;35.44;17.20
31595;BME280;18200;48.726;8.892;2023-05-03T16:03:13;97282.38;;;36.26;16.70
31595;BME280;18200;48.726;8.892;2023-05-03T16:07:15;97283.34;;;33.72;18.12
31595;BME280;18200;48.726;8.892;2023-05-03T16:11:15;97279.44;;;32.16;19.95
31595;BME280;18200;48.726;8.892;2023-05-03T16:15:16;97270.19;;;34.79;17.62
31595;BME280;18200;48.726;8.892;2023-05-03T16:19:16;97276.50;;;32.25;19.03
31595;BME280;18200;48.726;8.892;2023-05-03T16:23:17;97275.06;;;34.25;18.01
31595;BME280;18200;48.726;8.892;2023-05-03T16:27:17;97276.59;;;34.32;18.20
31595;BME280;18200;48.726;8.892;2023-05-03T16:31:17;97288.44;;;32.91;18.64
31595;BME280;18200;48.726;8.892;2023-05-03T16:35:18;97270.44;;;33.75;18.61
31595;BME280;18200;48.726;8.892;2023-05-03T16:39:18;97266.75;;;31.60;21.20
31595;BME280;18200;48.726;8.892;2023-05-03T16:43:19;97255.19;;;33.08;18.96
31595;BME280;18200;48.726;8.892;2023-05-03T16:47:19;97251.31;;;33.00;19.11
31595;BME280;18200;48.726;8.892;2023-05-03T16:51:21;97247.81;;;34.63;17.79
31595;BME280;18200;48.726;8.892;2023-05-03T16:55:21;97252.94;;;34.86;17.68
31595;BME280;18200;48.726;8.892;2023-05-03T16:59:22;97254.59;;;33.97;18.59
31595;BME280;18200;48.726;8.892;2023-05-03T17:03:22;97258.75;;;33.71;18.97
31595;BME280;18200;48.726;8.892;2023-05-03T17:07:23;97254.34;;;32.76;19.17
31595;BME280;18200;48.726;8.892;2023-05-03T17:11:23;97255.34;;;33.24;18.34
31595;BME280;18200;48.726;8.892;2023-05-03T17:15:24;97255.09;;;33.53;18.76
31595;BME280;18200;48.726;8.892;2023-05-03T17:19:24;97245.13;;;35.13;17.85
31595;BME280;18200;48.726;8.892;2023-05-03T17:23:26;97240.44;;;34.65;18.18
31595;BME280;18200;48.726;8.892;2023-05-03T17:27:26;97241.06;;;35.14;17.75
31595;BME280;18200;48.726;8.892;2023-05-03T17:31:26;97245.63;;;35.11;17.43
31595;BME280;18200;48.726;8.892;2023-05-03T17:35:27;97239.97;;;34.67;18.10
31595;BME280;18200;48.726;8.892;2023-05-03T17:39:27;97241.47;;;34.62;18.47
31595;BME280;18200;48.726;8.892;2023-05-03T17:43:27;97242.78;;;34.89;17.30
31595;BME280;18200;48.726;8.892;2023-05-03T17:47:28;97245.34;;;34.92;17.65
31595;BME280;18200;48.726;8.892;2023-05-03T17:51:29;97249.63;;;34.07;18.31
31595;BME280;18200;48.726;8.892;2023-05-03T17:55:33;97257.41;;;34.51;18.00
31595;BME280;18200;48.726;8.892;2023-05-03T17:59:35;97250.56;;;33.98;17.86
31595;BME280;18200;48.726;8.892;2023-05-03T18:03:38;97252.94;;;34.11;18.86
31595;BME280;18200;48.726;8.892;2023-05-03T18:07:41;97258.59;;;33.17;19.64
31595;BME280;18200;48.726;8.892;2023-05-03T18:11:41;97254.38;;;32.36;20.58
31595;BME280;18200;48.726;8.892;2023-05-03T18:15:44;97254.06;;;32.28;20.96
31595;BME280;18200;48.726;8.892;2023-05-03T18:19:44;97256.56;;;32.92;20.30
31595;BME280;18200;48.726;8.892;2023-05-03T18:23:45;97262.28;;;32.83;20.21
31595;BME280;18200;48.726;8.892;2023-05-03T18:27:45;97267.31;;;32.59;20.64
31595;BME280;18200;48.726;8.892;2023-05-03T18:31:45;97263.44;;;32.71;21.01
31595;BME280;18200;48.726;8.892;2023-05-03T18:35:50;97264.75;;;31.80;22.05
31595;BME280;18200;48.726;8.892;2023-05-03T18:39:50;97262.16;;;31.42;22.71
31595;BME280;18200;48.726;8.892;2023-05-03T18:43:50;97263.38;;;30.83;23.00
31595;BME280;18200;48.726;8.892;2023-05-03T18:47:51;97272.13;;;31.34;22.47
31595;BME280;18200;48.726;8.892;2023-05-03T18:51:51;97274.91;;;31.83;21.79
31595;BME280;18200;48.726;8.892;2023-05-03T18:55:52;97280.34;;;31.92;21.82
31595;BME280;18200;48.726;8.892;2023-05-03T18:59:52;97280.53;;;31.54;22.41
31595;BME280;18200;48.726;8.892;2023-05-03T19:03:56;97281.91;;;31.44;22.43
31595;BME280;18200;48.726;8.892;2023-05-03T19:07:56;97279.69;;;31.33;22.70
31595;BME280;18200;48.726;8.892;2023-05-03T19:11:56;97277.47;;;31.52;22.54
31595;BME280;18200;48.726;8.892;2023-05-03T19:15:57;97277.63;;;30.76;23.73
31595;BME280;18200;48.726;8.892;2023-05-03T19:19:58;97273.19;;;30.54;24.01
31595;BME280;18200;48.726;8.892;2023-05-03T19:23:58;97278.22;;;30.41;24.84
31595;BME280;18200;48.726;8.892;2023-05-03T19:27:58;97283.28;;;29.96;24.85
31595;BME280;18200;48.726;8.892;2023-05-03T19:31:59;97283.28;;;29.54;26.20
31595;BME280;18200;48.726;8.892;2023-05-03T19:35:59;97294.84;;;28.47;26.61
31595;BME280;18200;48.726;8.892;2023-05-03T19:40:05;97293.94;;;27.92;27.48
31595;BME280;18200;48.726;8.892;2023-05-03T19:44:06;97295.09;;;28.04;27.55
31595;BME280;18200;48.726;8.892;2023-05-03T19:48:06;97296.59;;;28.05;27.01
31595;BME280;18200;48.726;8.892;2023-05-03T19:52:09;97294.66;;;28.23;26.85
31595;BME280;18200;48.726;8.892;2023-05-03T19:56:10;97304.97;;;28.50;26.71
31595;BME280;18200;48.726;8.892;2023-05-03T20:00:12;97304.63;;;27.72;28.22
31595;BME280;18200;48.726;8.892;2023-05-03T20:04:16;97307.09;;;27.39;28.99
31595;BME280;18200;48.726;8.892;2023-05-03T20:08:16;97308.28;;;27.69;28.23
31595;BME280;18200;48.726;8.892;2023-05-03T20:12:17;97302.84;;;27.87;27.39
31595;BME280;18200;48.726;8.892;2023-05-03T20:16:17;97308.22;;;27.91;27.56
31595;BME280;18200;48.726;8.892;2023-05-03T20:20:17;97309.81;;;27.09;29.19
31595;BME280;18200;48.726;8.892;2023-05-03T20:24:19;97302.91;;;27.04;28.77
31595;BME280;18200;48.726;8.892;2023-05-03T20:28:19;97309.69;;;27.12;29.00
31595;BME280;18200;48.726;8.892;2023-05-03T20:32:20;97323.09;;;26.79;29.14
31595;BME280;18200;48.726;8.892;2023-05-03T20:36:20;97313.00;;;27.07;29.41
31595;BME280;18200;48.726;8.892;2023-05-03T20:40:21;97308.13;;;27.11;29.33
31595;BME280;18200;48.726;8.892;2023-05-03T20:44:21;97312.28;;;26.85;29.52
31595;BME280;18200;48.726;8.892;2023-05-03T20:48:22;97310.16;;;26.89;29.67
31595;BME280;18200;48.726;8.892;2023-05-03T20:52:22;97303.09;;;26.54;29.75
31595;BME280;18200;48.726;8.892;2023-05-03T20:56:23;97307.56;;;26.39;29.74
31595;BME280;18200;48.726;8.892;2023-05-03T21:00:23;97302.63;;;25.74;31.21
31595;BME280;18200;48.726;8.892;2023-05-03T21:04:24;97305.03;;;25.72;30.79
31595;BME280;18200;48.726;8.892;2023-05-03T21:08:25;97301.28;;;25.66;29.92
31595;BME280;18200;48.726;8.892;2023-05-03T21:12:25;97308.53;;;25.85;30.59
31595;BME280;18200;48.726;8.892;2023-05-03T21:16:26;97309.09;;;25.93;30.16
31595;BME280;18200;48.726;8.892;2023-05-03T21:20:26;97314.69;;;25.39;31.43
31595;BME280;18200;48.726;8.892;2023-05-03T21:24:26;97306.94;;;25.09;31.66
31595;BME280;18200;48.726;8.892;2023-05-03T21:28:28;97305.47;;;24.47;31.38
31595;BME280;18200;48.726;8.892;2023-05-03T21:32:30;97308.94;;;23.70;34.17